GMT,Max TemperatureF,Mean TemperatureF,Min TemperatureF,Max Dew PointF,MeanDew PointF,Min DewpointF,Max Humidity, Mean Humidity, Min Humidity, Max Sea Level PressureIn, Mean Sea Level PressureIn, Min Sea Level PressureIn, Max VisibilityMiles, Mean VisibilityMiles, Min VisibilityMiles, Max Wind SpeedMPH, Mean Wind SpeedMPH, Max Gust SpeedMPH,PrecipitationIn, CloudCover, Events, WindDirDegrees
2013-1-1,44,42,41,41,39,37,93,83,76,29.89,29.54,29.18,6,6,5,25,18,36,0.00,2,Rain,298
2013-1-2,51,46,42,50,47,39,100,95,81,29.95,29.83,29.74,6,3,1,23,15,,0.00,6,Rain,219
2013-1-3,50,49,48,50,47,45,100,93,87,30.27,30.16,29.95,6,4,1,26,17,,0.00,5,Rain,222
2013-1-4,50,49,48,48,48,46,100,95,87,30.36,30.31,30.24,6,4,2,26,22,,0.00,6,Rain,204
2013-1-5,50,49,46,48,46,45,100,91,82,30.30,30.20,30.09,6,5,2,28,20,,0.00,6,Rain,197
2013-1-6,50,47,44,48,47,43,100,95,87,30.33,30.14,30.04,6,4,1,25,13,,0.00,7,Rain,185
2013-1-7,50,49,48,50,48,46,100,98,93,30.06,29.97,29.92,6,4,0,14,8,,0.00,6,Fog-Rain,170
2013-1-8,51,48,44,50,44,37,100,86,71,30.09,29.93,29.77,6,6,2,26,19,36,0.00,5,Rain,221
2013-1-9,48,44,41,45,42,37,100,86,71,30.09,30.08,30.04,6,6,4,22,13,,0.00,3,,233
2013-1-10,44,40,35,41,38,34,100,91,81,30.04,29.94,29.86,6,6,6,18,7,,0.00,5,,137
2013-1-11,48,44,41,43,40,37,100,85,71,29.89,29.88,29.86,6,6,4,18,13,,0.00,4,Rain,176
2013-1-12,44,42,41,43,40,39,100,94,87,30.01,29.96,29.89,6,5,3,16,10,,0.00,6,Rain,166
2013-1-13,46,44,41,43,40,36,100,86,76,29.98,29.94,29.80,6,6,3,20,13,,0.00,3,Rain,252
2013-1-14,42,40,37,39,36,34,93,83,70,29.89,29.85,29.80,6,6,3,26,17,30,0.00,3,Rain,335
2013-1-15,42,38,33,39,36,32,100,90,81,29.86,29.80,29.71,6,6,4,22,7,,0.00,3,Rain,163
2013-1-16,41,40,39,39,38,36,100,93,87,29.83,29.75,29.68,6,6,4,24,19,,0.00,6,Rain,161
2013-1-17,42,40,39,39,36,28,93,84,61,29.83,29.73,29.53,6,6,5,33,21,46,0.00,6,,151
2013-1-18,41,38,35,34,28,21,81,67,52,29.53,29.50,29.47,6,6,6,34,29,45,0.00,4,,127
2013-1-19,39,37,35,32,29,27,81,69,61,29.71,29.64,29.50,6,6,6,23,18,,0.00,5,Rain,101
2013-1-20,37,36,35,28,26,23,75,67,56,29.68,29.60,29.53,6,6,6,18,13,,0.00,6,,124
2013-1-21,39,37,35,34,28,25,93,70,60,29.56,29.55,29.50,6,6,6,26,15,,0.00,5,Rain-Snow,92
2013-1-22,41,38,35,32,29,28,87,72,61,29.80,29.69,29.56,6,6,6,28,21,,0.00,3,,89
2013-1-23,42,36,28,34,31,25,87,78,65,29.95,29.84,29.77,6,6,6,16,9,,0.00,4,,146
2013-1-24,42,32,21,41,32,21,100,88,76,29.98,29.90,29.71,6,6,2,23,8,,0.00,5,Rain,164
2013-1-25,44,42,39,43,40,37,100,94,81,29.71,29.47,29.24,6,5,1,28,19,,0.00,5,Rain,172
2013-1-26,46,42,37,45,38,34,100,85,70,29.42,29.22,28.82,6,6,3,36,18,45,0.00,4,Rain,223
2013-1-27,44,42,39,39,37,34,93,82,66,28.91,28.78,28.68,6,6,3,36,13,47,0.00,4,Rain,221
2013-1-28,46,44,41,43,40,32,93,84,61,29.06,28.85,28.62,6,5,3,37,28,51,0.00,4,Rain,222
2013-1-29,48,44,41,46,41,34,100,85,66,29.18,28.88,28.53,6,5,2,54,26,74,0.00,5,Rain,216
2013-1-30,46,45,44,39,35,32,81,69,61,29.53,29.22,28.91,6,6,5,46,36,60,0.00,3,Rain,270
2013-1-31,46,42,37,43,39,34,100,90,76,29.47,29.27,29.18,6,6,2,18,11,,0.00,5,Rain,97